Time;durP1;ratioP1;P1;durP2;ratioP2;P2;SDS_P1;SDS_P2;PMS_P1;PMS_P2;Temp;Humidity;BMP_temperature;BMP_pressure;BME280_temperature;BME280_humidity;BME280_pressure;Samples;Min_cycle;Max_cycle;Signal;HPM_P1;HPM_P2
2021/04/06 00:01:30;;;;;;;;;;;;;;;;;;5039057;28;20384;-66
2021/04/06 00:03:56;;;;;;;;;;;;;;;;;;5036692;28;19925;-66
2021/04/06 00:06:23;;;;;;;;;;;;;;;;;;5034343;28;20011;-67
2021/04/06 00:08:49;;;;;;;;;;;;;;;;;;5029513;28;19940;-66
2021/04/06 00:11:16;;;;;;;;;;;;;;;;;;5026097;28;19947;-66
2021/04/06 00:13:42;;;;;;;;;;;;;;;;;;5032669;28;20396;-66
2021/04/06 00:16:09;;;;;;;;;;;;;;;;;;5038235;28;19924;-66
2021/04/06 00:18:35;;;;;;;;;;;;;;;;;;5035818;28;19932;-66
2021/04/06 00:21:02;;;;;;;;;;;;;;;;;;5021564;28;20012;-66
2021/04/06 00:23:28;;;;;;;;;;;;;;;;;;5033166;28;19929;-67
2021/04/06 00:25:55;;;;;;;;;;;;;;;;;;5036841;28;20008;-66
2021/04/06 00:28:21;;;;;;;;;;;;;;;;;;5037633;28;19925;-66
2021/04/06 00:30:48;;;;;;;;;;;;;;;;;;5036258;28;20021;-66
2021/04/06 00:33:14;;;;;;;;;;;;;;;;;;5038076;28;20460;-67
2021/04/06 00:35:41;;;;;;;;;;;;;;;;;;5035237;28;19935;-66
2021/04/06 00:38:07;;;;;;;;;;;;;;;;;;5030847;28;20293;-67
2021/04/06 00:40:34;;;;;;;;;;;;;;;;;;5035411;28;19931;-66
2021/04/06 00:43:00;;;;;;;;;;;;;;;;;;5032879;28;19947;-66
2021/04/06 00:45:27;;;;;;;;;;;;;;;;;;5026963;28;19929;-66
2021/04/06 00:47:53;;;;;;;;;;;;;;;;;;5035140;28;19924;-66
2021/04/06 00:50:20;;;;;;;;;;;;;;;;;;5031031;28;19932;-66
2021/04/06 00:52:46;;;;;;;;;;;;;;;;;;5034629;28;20304;-66
2021/04/06 00:55:13;;;;;;;;;;;;;;;;;;5031867;28;19930;-66
2021/04/06 00:57:39;;;;;;;;;;;;;;;;;;5033291;28;20350;-66
2021/04/06 01:00:06;;;;;;;;;;;;;;;;;;5030095;28;19971;-66
2021/04/06 01:02:32;;;;;;;;;;;;;;;;;;5031023;28;20008;-67
2021/04/06 01:04:59;;;;;;;;;;;;;;;;;;5032952;28;20403;-66
2021/04/06 01:07:25;;;;;;;;;;;;;;;;;;5029246;28;19929;-67
2021/04/06 01:09:52;;;;;;;;;;;;;;;;;;5025117;28;20265;-66
2021/04/06 01:12:18;;;;;;;;;;;;;;;;;;5033093;28;20019;-68
2021/04/06 01:14:45;;;;;;;;;;;;;;;;;;5029989;28;19931;-66
2021/04/06 01:17:11;;;;;;;;;;;;;;;;;;5029411;28;19925;-65
2021/04/06 01:19:37;;;;;;;;;;;;;;;;;;5033929;28;19929;-66
2021/04/06 01:22:04;;;;;;;;;;;;;;;;;;5023075;28;19932;-66
2021/04/06 01:24:30;;;;;;;;;;;;;;;;;;5032981;28;19983;-66
2021/04/06 01:26:57;;;;;;;;;;;;;;;;;;5031226;28;19955;-66
2021/04/06 01:29:23;;;;;;;;;;;;;;;;;;5030281;28;20024;-66
2021/04/06 01:31:50;;;;;;;;;;;;;;;;;;5033428;28;19926;-66
2021/04/06 01:34:16;;;;;;;;;;;;;;;;;;5025711;28;19930;-66
2021/04/06 01:36:43;;;;;;;;;;;;;;;;;;5027286;28;19933;-65
2021/04/06 01:39:09;;;;;;;;;;;;;;;;;;5028768;28;19978;-66
2021/04/06 01:41:36;;;;;;;;;;;;;;;;;;5031771;28;19934;-66
2021/04/06 01:44:02;;;;;;;;;;;;;;;;;;5024262;28;19929;-66
2021/04/06 01:46:32;;;;;;;;;;;;;;;;;;5030594;28;20008;-66
2021/04/06 01:48:58;;;;;;;;;;;;;;;;;;5029764;28;19925;-66
2021/04/06 01:51:25;;;;;;;;;;;;;;;;;;5026556;28;20329;-66
2021/04/06 01:53:51;;;;;;;;;;;;;;;;;;5025973;28;19933;-66
2021/04/06 01:56:18;;;;;;;;;;;;;;;;;;5029716;28;19952;-66
2021/04/06 01:58:46;;;;;;;;;;;;;;;;;;5032199;28;19932;-65
2021/04/06 02:01:18;;;;;;;;;;;;;;;;;;5029043;28;19925;-66
2021/04/06 02:03:48;;;;;;;;;;;;;;;;;;5016456;28;19932;-66
2021/04/06 02:06:15;;;;;;;;;;;;;;;;;;5030426;28;19925;-65
2021/04/06 02:08:41;;;;;;;;;;;;;;;;;;5020815;28;20071;-67
2021/04/06 02:11:08;;;;;;;;;;;;;;;;;;5029030;28;19929;-66
2021/04/06 02:13:34;;;;;;;;;;;;;;;;;;5030047;28;20282;-66
2021/04/06 02:16:01;;;;;;;;;;;;;;;;;;5032708;28;19931;-66
2021/04/06 02:18:27;;;;;;;;;;;;;;;;;;5031731;28;19933;-66
2021/04/06 02:20:54;;;;;;;;;;;;;;;;;;5028615;28;19925;-66
2021/04/06 02:23:20;;;;;;;;;;;;;;;;;;5029979;28;19935;-66
2021/04/06 02:25:47;;;;;;;;;;;;;;;;;;5029903;28;19998;-66
2021/04/06 02:28:13;;;;;;;;;;;;;;;;;;5027623;28;19975;-66
2021/04/06 02:30:40;;;;;;;;;;;;;;;;;;5030283;28;19925;-66
2021/04/06 02:33:06;;;;;;;;;;;;;;;;;;5025822;28;19925;-66
2021/04/06 02:35:33;;;;;;;;;;;;;;;;;;5032834;28;20004;-66
2021/04/06 02:37:59;;;;;;;;;;;;;;;;;;5029739;28;19925;-66
2021/04/06 02:40:26;;;;;;;;;;;;;;;;;;5029007;28;19925;-67
2021/04/06 02:42:52;;;;;;;;;;;;;;;;;;5030691;28;20282;-67
2021/04/06 02:45:20;;;;;;;;;;;;;;;;;;5028700;28;19932;-67
2021/04/06 02:47:47;;;;;;;;;;;;;;;;;;5025021;28;19925;-66
2021/04/06 02:50:13;;;;;;;;;;;;;;;;;;5031288;28;20348;-66
2021/04/06 02:52:40;;;;;;;;;;;;;;;;;;5024852;28;19929;-67
2021/04/06 02:55:06;;;;;;;;;;;;;;;;;;5024808;28;19928;-66
2021/04/06 02:57:33;;;;;;;;;;;;;;;;;;5024373;28;19925;-67
2021/04/06 02:59:59;;;;;;;;;;;;;;;;;;5028405;28;19925;-67
2021/04/06 03:02:26;;;;;;;;;;;;;;;;;;5023454;28;19925;-66
2021/04/06 03:04:52;;;;;;;;;;;;;;;;;;5025103;28;20060;-66
2021/04/06 03:07:19;;;;;;;;;;;;;;;;;;5024423;28;20414;-67
2021/04/06 03:09:45;;;;;;;;;;;;;;;;;;5028057;28;19925;-67
2021/04/06 03:12:12;;;;;;;;;;;;;;;;;;5030139;28;19925;-67
2021/04/06 03:14:38;;;;;;;;;;;;;;;;;;5026408;28;19929;-68
2021/04/06 03:17:05;;;;;;;;;;;;;;;;;;5024527;28;20021;-66
2021/04/06 03:19:31;;;;;;;;;;;;;;;;;;5025126;28;19971;-67
2021/04/06 03:21:58;;;;;;;;;;;;;;;;;;5028206;28;19929;-67
2021/04/06 03:24:24;;;;;;;;;;;;;;;;;;5027347;28;20018;-67
2021/04/06 03:26:51;;;;;;;;;;;;;;;;;;5026463;28;20066;-66
2021/04/06 03:29:17;;;;;;;;;;;;;;;;;;5015049;28;20024;-67
2021/04/06 03:31:44;;;;;;;;;;;;;;;;;;5027144;28;20016;-67
2021/04/06 03:34:10;;;;;;;;;;;;;;;;;;5024037;28;19980;-68
2021/04/06 03:36:37;;;;;;;;;;;;;;;;;;5021982;28;20020;-67
2021/04/06 03:39:03;;;;;;;;;;;;;;;;;;5025980;28;20446;-67
2021/04/06 03:41:29;;;;;;;;;;;;;;;;;;5031179;28;19933;-67
2021/04/06 03:43:56;;;;;;;;;;;;;;;;;;5024750;28;20290;-67
2021/04/06 03:46:23;;;;;;;;;;;;;;;;;;5025371;28;19925;-67
2021/04/06 03:48:50;;;;;;;;;;;;;;;;;;5025187;28;19932;-67
2021/04/06 03:51:17;;;;;;;;;;;;;;;;;;5030667;28;19925;-67
2021/04/06 03:53:43;;;;;;;;;;;;;;;;;;5025873;28;20350;-67
2021/04/06 03:56:11;;;;;;;;;;;;;;;;;;5023773;28;19925;-66
2021/04/06 03:58:42;;;;;;;;;;;;;;;;;;5030908;28;19963;-67
2021/04/06 04:01:09;;;;;;;;;;;;;;;;;;5029372;28;19987;-67
2021/04/06 04:03:35;;;;;;;;;;;;;;;;;;5027589;28;19925;-67
2021/04/06 04:06:02;;;;;;;;;;;;;;;;;;5031572;28;20273;-67
2021/04/06 04:08:28;;;;;;;;;;;;;;;;;;5031470;28;19972;-67
2021/04/06 04:10:55;;;;;;;;;;;;;;;;;;5022464;28;19925;-67
2021/04/06 04:13:21;;;;;;;;;;;;;;;;;;5027227;28;19933;-66
2021/04/06 04:15:48;;;;;;;;;;;;;;;;;;5030291;28;19929;-66
2021/04/06 04:18:14;;;;;;;;;;;;;;;;;;5034088;28;19925;-67
2021/04/06 04:20:42;;;;;;;;;;;;;;;;;;5034194;28;19929;-67
2021/04/06 04:23:08;;;;;;;;;;;;;;;;;;5033849;28;19929;-66
2021/04/06 04:25:34;;;;;;;;;;;;;;;;;;5034898;28;19975;-66
2021/04/06 04:28:01;;;;;;;;;;;;;;;;;;5032628;28;19971;-66
2021/04/06 04:30:39;;;;;;;;;;;;;;;;;;5030243;28;19978;-67
2021/04/06 04:33:06;;;;;;;;;;;;;;;;;;5037649;28;20349;-66
2021/04/06 04:35:32;;;;;;;;;;;;;;;;;;5037915;28;20392;-66
2021/04/06 04:37:59;;;;;;;;;;;;;;;;;;5026289;28;19992;-66
2021/04/06 04:40:25;;;;;;;;;;;;;;;;;;5033386;28;19947;-66
2021/04/06 04:42:53;;;;;;;;;;;;;;;;;;5032503;28;20382;-67
2021/04/06 04:45:20;;;;;;;;;;;;;;;;;;5029623;28;19948;-66
2021/04/06 04:47:46;;;;;;;;;;;;;;;;;;5027046;28;19925;-66
2021/04/06 04:50:13;;;;;;;;;;;;;;;;;;5027480;28;19925;-66
2021/04/06 04:52:39;;;;;;;;;;;;;;;;;;5032407;28;19925;-66
2021/04/06 04:55:06;;;;;;;;;;;;;;;;;;5032973;28;19929;-66
2021/04/06 04:57:32;;;;;;;;;;;;;;;;;;5031697;28;19933;-66
2021/04/06 04:59:59;;;;;;;;;;;;;;;;;;5033236;28;19978;-66
2021/04/06 05:02:25;;;;;;;;;;;;;;;;;;5021191;28;19935;-66
2021/04/06 05:04:55;;;;;;;;;;;;;;;;;;5024210;28;19983;-66
2021/04/06 05:07:22;;;;;;;;;;;;;;;;;;5022079;28;19944;-66
2021/04/06 05:09:48;;;;;;;;;;;;;;;;;;5031740;28;19925;-66
2021/04/06 05:12:15;;;;;;;;;;;;;;;;;;5025339;28;19971;-66
2021/04/06 05:14:41;;;;;;;;;;;;;;;;;;5029152;28;19929;-65
2021/04/06 05:17:08;;;;;;;;;;;;;;;;;;5034027;28;19940;-66
2021/04/06 05:19:34;;;;;;;;;;;;;;;;;;5033459;28;20051;-66
2021/04/06 05:22:02;;;;;;;;;;;;;;;;;;5031222;28;19979;-66
2021/04/06 05:24:29;;;;;;;;;;;;;;;;;;5033338;28;19983;-66
2021/04/06 05:26:55;;;;;;;;;;;;;;;;;;5032450;28;19925;-66
2021/04/06 05:29:21;;;;;;;;;;;;;;;;;;5033469;28;19925;-66
2021/04/06 05:31:48;;;;;;;;;;;;;;;;;;5021834;28;19957;-66
2021/04/06 05:34:14;;;;;;;;;;;;;;;;;;5024734;28;19925;-66
2021/04/06 05:36:41;;;;;;;;;;;;;;;;;;5025444;28;19925;-67
2021/04/06 05:39:07;;;;;;;;;;;;;;;;;;5027854;28;19933;-67
2021/04/06 05:41:34;;;;;;;;;;;;;;;;;;5030521;28;19925;-67
2021/04/06 05:44:00;;;;;;;;;;;;;;;;;;5025292;28;19928;-67
2021/04/06 05:46:27;;;;;;;;;;;;;;;;;;5030193;28;19929;-67
2021/04/06 05:48:53;;;;;;;;;;;;;;;;;;5026415;28;19930;-67
2021/04/06 05:51:20;;;;;;;;;;;;;;;;;;5022913;28;19925;-67
2021/04/06 05:53:46;;;;;;;;;;;;;;;;;;5031392;28;20507;-67
2021/04/06 05:56:13;;;;;;;;;;;;;;;;;;5031381;28;19929;-68
2021/04/06 05:58:39;;;;;;;;;;;;;;;;;;5032707;28;20419;-69
2021/04/06 06:01:06;;;;;;;;;;;;;;;;;;5025125;28;19936;-69
2021/04/06 06:03:33;;;;;;;;;;;;;;;;;;5025278;28;19933;-68
2021/04/06 06:05:59;;;;;;;;;;;;;;;;;;5029832;28;19992;-69
2021/04/06 06:08:26;;;;;;;;;;;;;;;;;;5037006;28;19948;-68
2021/04/06 06:10:52;;;;;;;;;;;;;;;;;;5022709;28;19926;-70
2021/04/06 06:13:19;;;;;;;;;;;;;;;;;;5021521;28;19925;-68
2021/04/06 06:15:46;;;;;;;;;;;;;;;;;;5027841;28;19972;-68
2021/04/06 06:18:12;;;;;;;;;;;;;;;;;;5033074;28;20328;-69
2021/04/06 06:20:39;;;;;;;;;;;;;;;;;;5032358;28;19979;-69
2021/04/06 06:23:05;;;;;;;;;;;;;;;;;;5032565;28;19925;-69
2021/04/06 06:25:32;;;;;;;;;;;;;;;;;;5023672;28;19925;-68
2021/04/06 06:27:58;;;;;;;;;;;;;;;;;;5032195;28;19932;-67
2021/04/06 06:30:26;;;;;;;;;;;;;;;;;;5032624;28;19925;-68
2021/04/06 06:32:53;;;;;;;;;;;;;;;;;;5025298;28;20345;-70
2021/04/06 06:35:19;;;;;;;;;;;;;;;;;;5026538;28;19926;-71
2021/04/06 06:37:46;;;;;;;;;;;;;;;;;;5025907;28;20313;-68
2021/04/06 06:40:12;;;;;;;;;;;;;;;;;;5026084;28;19925;-69
2021/04/06 06:42:39;;;;;;;;;;;;;;;;;;5024323;28;20024;-68
2021/04/06 06:45:05;;;;;;;;;;;;;;;;;;5023611;28;20032;-69
2021/04/06 06:47:32;;;;;;;;;;;;;;;;;;5028465;28;19926;-68
2021/04/06 06:49:58;;;;;;;;;;;;;;;;;;5030834;28;19929;-68
2021/04/06 06:52:26;;;;;;;;;;;;;;;;;;5027265;28;19929;-68
2021/04/06 06:54:56;;;;;;;;;;;;;;;;;;5030150;28;19925;-68
2021/04/06 06:57:22;;;;;;;;;;;;;;;;;;5031278;28;19976;-69
2021/04/06 06:59:49;;;;;;;;;;;;;;;;;;5031430;28;20373;-69
2021/04/06 07:02:15;;;;;;;;;;;;;;;;;;5027329;28;19929;-68
2021/04/06 07:04:43;;;;;;;;;;;;;;;;;;5027119;28;19925;-68
2021/04/06 07:07:09;;;;;;;;;;;;;;;;;;5027343;28;19929;-68
2021/04/06 07:09:39;;;;;;;;;;;;;;;;;;5029633;28;19925;-68
2021/04/06 07:12:05;;;;;;;;;;;;;;;;;;5025422;28;19971;-68
2021/04/06 07:14:35;;;;;;;;;;;;;;;;;;5027894;28;20030;-69
2021/04/06 07:17:01;;;;;;;;;;;;;;;;;;5030835;28;22761;-69
2021/04/06 07:19:31;;;;;;;;;;;;;;;;;;5031637;28;20314;-68
2021/04/06 07:21:57;;;;;;;;;;;;;;;;;;5029154;28;19978;-69
2021/04/06 07:24:24;;;;;;;;;;;;;;;;;;5029693;28;19925;-67
2021/04/06 07:26:50;;;;;;;;;;;;;;;;;;5030114;28;20000;-68
2021/04/06 07:29:18;;;;;;;;;;;;;;;;;;5028568;28;20023;-68
2021/04/06 07:31:44;;;;;;;;;;;;;;;;;;5023340;28;19925;-67
2021/04/06 07:34:11;;;;;;;;;;;;;;;;;;5027342;28;20300;-67
2021/04/06 07:36:37;;;;;;;;;;;;;;;;;;5033365;28;19994;-68
2021/04/06 07:39:04;;;;;;;;;;;;;;;;;;5034262;28;19978;-67
2021/04/06 07:41:30;;;;;;;;;;;;;;;;;;5025426;28;19925;-67
2021/04/06 07:43:57;;;;;;;;;;;;;;;;;;5025725;28;19968;-68
2021/04/06 07:46:23;;;;;;;;;;;;;;;;;;5036329;28;19933;-67
2021/04/06 07:48:50;;;;;;;;;;;;;;;;;;5020221;28;20398;-67
2021/04/06 07:51:16;;;;;;;;;;;;;;;;;;5025662;28;19952;-66
2021/04/06 07:53:43;;;;;;;;;;;;;;;;;;5028687;28;20340;-67
2021/04/06 07:56:09;;;;;;;;;;;;;;;;;;5034924;28;19931;-67
2021/04/06 07:58:36;;;;;;;;;;;;;;;;;;5031732;28;19933;-67
2021/04/06 08:01:02;;;;;;;;;;;;;;;;;;5028025;28;20385;-67
2021/04/06 08:03:29;;;;;;;;;;;;;;;;;;5020887;28;19940;-67
2021/04/06 08:05:55;;;;;;;;;;;;;;;;;;5027524;28;20389;-67
2021/04/06 08:08:22;;;;;;;;;;;;;;;;;;5030978;28;19925;-67
2021/04/06 08:10:48;;;;;;;;;;;;;;;;;;5026495;28;20343;-67
2021/04/06 08:13:15;;;;;;;;;;;;;;;;;;5023556;28;19971;-67
2021/04/06 08:15:41;;;;;;;;;;;;;;;;;;5030074;28;19925;-67
2021/04/06 08:18:08;;;;;;;;;;;;;;;;;;5025287;28;19929;-65
2021/04/06 08:20:34;;;;;;;;;;;;;;;;;;5030488;28;20309;-65
2021/04/06 08:23:01;;;;;;;;;;;;;;;;;;5026373;28;20296;-65
2021/04/06 08:25:27;;;;;;;;;;;;;;;;;;5030432;28;19974;-66
2021/04/06 08:27:54;;;;;;;;;;;;;;;;;;5029986;28;19924;-67
2021/04/06 08:30:21;;;;;;;;;;;;;;;;;;5027902;28;19925;-66
2021/04/06 08:32:48;;;;;;;;;;;;;;;;;;5024656;28;19933;-66
2021/04/06 08:35:14;;;;;;;;;;;;;;;;;;5032552;28;19925;-66
2021/04/06 08:37:40;;;;;;;;;;;;;;;;;;5029329;28;20420;-66
2021/04/06 08:40:07;;;;;;;;;;;;;;;;;;5027237;28;19968;-67
2021/04/06 08:42:34;;;;;;;;;;;;;;;;;;5022467;28;20293;-66
2021/04/06 08:45:00;;;;;;;;;;;;;;;;;;5029339;28;19925;-66
2021/04/06 08:47:27;;;;;;;;;;;;;;;;;;5030408;28;19975;-66
2021/04/06 08:49:53;;;;;;;;;;;;;;;;;;5029639;28;20071;-66
2021/04/06 08:52:20;;;;;;;;;;;;;;;;;;5024206;28;19964;-65
2021/04/06 08:54:48;;;;;;;;;;;;;;;;;;5025032;28;19932;-66
2021/04/06 08:57:14;;;;;;;;;;;;;;;;;;5028989;28;19968;-66
2021/04/06 08:59:42;;;;;;;;;;;;;;;;;;5029321;28;19925;-66
2021/04/06 09:02:10;;;;;;;;;;;;;;;;;;5025180;28;19926;-66
2021/04/06 09:04:37;;;;;;;;;;;;;;;;;;5031740;28;19925;-65
2021/04/06 09:07:03;;;;;;;;;;;;;;;;;;5032052;28;20298;-66
2021/04/06 09:09:30;;;;;;;;;;;;;;;;;;5031100;28;19939;-66
2021/04/06 09:11:56;;;;;;;;;;;;;;;;;;5029108;28;20393;-66
2021/04/06 09:14:23;;;;;;;;;;;;;;;;;;5026515;28;20016;-66
2021/04/06 09:16:49;;;;;;;;;;;;;;;;;;5028797;28;20015;-66
2021/04/06 09:19:16;;;;;;;;;;;;;;;;;;5025753;28;20040;-66
2021/04/06 09:21:42;;;;;;;;;;;;;;;;;;5027553;28;20395;-66
2021/04/06 09:24:09;;;;;;;;;;;;;;;;;;5026127;28;19925;-66
2021/04/06 09:26:35;;;;;;;;;;;;;;;;;;5030158;28;20016;-66
2021/04/06 09:29:02;;;;;;;;;;;;;;;;;;5025514;28;20377;-66
2021/04/06 09:31:28;;;;;;;;;;;;;;;;;;5026006;28;19944;-66
2021/04/06 09:33:55;;;;;;;;;;;;;;;;;;5029744;28;20016;-66
2021/04/06 09:36:21;;;;;;;;;;;;;;;;;;5029865;28;19932;-66
2021/04/06 09:38:48;;;;;;;;;;;;;;;;;;5026918;28;19931;-65
2021/04/06 09:41:14;;;;;;;;;;;;;;;;;;5027487;28;19933;-66
2021/04/06 09:43:41;;;;;;;;;;;;;;;;;;5026583;28;19925;-66
2021/04/06 09:46:07;;;;;;;;;;;;;;;;;;5037896;28;19933;-66
2021/04/06 09:48:34;;;;;;;;;;;;;;;;;;5039255;28;19972;-65
2021/04/06 09:51:00;;;;;;;;;;;;;;;;;;5027216;28;19976;-65
2021/04/06 09:53:27;;;;;;;;;;;;;;;;;;5027891;28;20002;-65
2021/04/06 09:55:53;;;;;;;;;;;;;;;;;;5022464;28;19925;-66
2021/04/06 09:58:20;;;;;;;;;;;;;;;;;;5030879;28;19925;-65
2021/04/06 10:00:47;;;;;;;;;;;;;;;;;;5028529;28;19925;-65
2021/04/06 10:03:13;;;;;;;;;;;;;;;;;;5022625;28;19925;-65
2021/04/06 10:05:42;;;;;;;;;;;;;;;;;;5025724;28;19933;-65
2021/04/06 10:08:09;;;;;;;;;;;;;;;;;;5021775;28;19975;-65
2021/04/06 10:10:35;;;;;;;;;;;;;;;;;;5061060;22;19925;-64
2021/04/06 10:13:02;;;;;;;;;;;;;;;;;;5072506;28;20018;-63
2021/04/06 10:15:28;;;;;;;;;;;;;;;;;;5072811;28;19924;-65
2021/04/06 10:17:55;;;;;;;;;;;;;;;;;;5071753;28;20430;-65
2021/04/06 10:20:21;;;;;;;;;;;;;;;;;;5062883;28;20007;-65
2021/04/06 10:22:48;;;;;;;;;;;;;;;;;;5070529;28;20006;-67
2021/04/06 10:25:17;;;;;;;;;;;;;;;;;;5069517;28;19924;-65
2021/04/06 10:27:47;;;;;;;;;;;;;;;;;;5066975;28;19931;-64
2021/04/06 10:30:13;;;;;;;;;;;;;;;;;;5067034;28;19925;-64
2021/04/06 10:32:40;;;;;;;;;;;;;;;;;;5062038;28;19947;-65
2021/04/06 10:35:06;;;;;;;;;;;;;;;;;;5062231;28;20350;-64
2021/04/06 10:37:33;;;;;;;;;;;;;;;;;;5069730;28;19952;-65
2021/04/06 10:40:00;;;;;;;;;;;;;;;;;;5067781;28;19926;-64
2021/04/06 10:42:26;;;;;;;;;;;;;;;;;;5066206;28;19949;-64
2021/04/06 10:44:53;;;;;;;;;;;;;;;;;;5065104;28;19964;-64
2021/04/06 10:47:19;;;;;;;;;;;;;;;;;;5067428;28;19951;-64
2021/04/06 10:49:46;;;;;;;;;;;;;;;;;;5067993;28;20461;-64
2021/04/06 10:52:12;;;;;;;;;;;;;;;;;;5066615;28;19964;-64
2021/04/06 10:54:39;;;;;;;;;;;;;;;;;;5062626;28;19924;-65
2021/04/06 10:57:06;;;;;;;;;;;;;;;;;;5063674;28;20295;-63
2021/04/06 10:59:32;;;;;;;;;;;;;;;;;;5070184;28;19924;-64
2021/04/06 11:01:59;;;;;;;;;;;;;;;;;;5063170;28;19932;-63
2021/04/06 11:04:25;;;;;;;;;;;;;;;;;;5065947;28;19936;-64
2021/04/06 11:06:52;;;;;;;;;;;;;;;;;;5069273;28;20112;-65
2021/04/06 11:09:18;;;;;;;;;;;;;;;;;;5066437;28;19925;-64
2021/04/06 11:11:45;;;;;;;;;;;;;;;;;;5055395;28;20031;-64
2021/04/06 11:14:11;;;;;;;;;;;;;;;;;;5061321;28;20025;-64
2021/04/06 11:16:38;;;;;;;;;;;;;;;;;;5057858;28;20491;-64
2021/04/06 11:19:04;;;;;;;;;;;;;;;;;;5062793;28;19970;-63
2021/04/06 11:21:31;;;;;;;;;;;;;;;;;;5063350;28;19931;-63
2021/04/06 11:23:58;;;;;;;;;;;;;;;;;;5068804;28;19932;-65
2021/04/06 11:26:24;;;;;;;;;;;;;;;;;;5064777;28;19929;-63
2021/04/06 11:28:51;;;;;;;;;;;;;;;;;;5062099;28;20303;-64
2021/04/06 11:31:17;;;;;;;;;;;;;;;;;;5067670;28;20407;-65
2021/04/06 11:33:44;;;;;;;;;;;;;;;;;;5065751;28;20098;-64
2021/04/06 11:36:10;;;;;;;;;;;;;;;;;;5071075;28;19929;-65
2021/04/06 11:38:37;;;;;;;;;;;;;;;;;;5072754;28;20030;-64
2021/04/06 11:41:03;;;;;;;;;;;;;;;;;;5072496;28;20417;-66
2021/04/06 11:43:30;;;;;;;;;;;;;;;;;;5066165;28;19990;-63
2021/04/06 11:45:56;;;;;;;;;;;;;;;;;;5060497;28;19969;-63
2021/04/06 11:48:23;;;;;;;;;;;;;;;;;;5068872;28;19924;-65
2021/04/06 11:50:49;;;;;;;;;;;;;;;;;;5066101;28;19947;-64
2021/04/06 11:53:16;;;;;;;;;;;;;;;;;;5066675;28;19963;-64
2021/04/06 11:55:42;;;;;;;;;;;;;;;;;;5067278;28;20012;-62
2021/04/06 11:58:09;;;;;;;;;;;;;;;;;;5059627;28;19931;-64
2021/04/06 12:00:35;;;;;;;;;;;;;;;;;;5059154;28;20288;-62
2021/04/06 12:03:02;;;;;;;;;;;;;;;;;;5065492;28;19978;-63
2021/04/06 12:05:28;;;;;;;;;;;;;;;;;;5064382;28;20256;-63
2021/04/06 12:07:55;;;;;;;;;;;;;;;;;;5066390;28;20003;-62
2021/04/06 12:10:21;;;;;;;;;;;;;;;;;;5066624;28;19929;-65
2021/04/06 12:12:48;;;;;;;;;;;;;;;;;;5062287;28;19924;-64
2021/04/06 12:15:14;;;;;;;;;;;;;;;;;;5063016;28;19978;-64
2021/04/06 12:17:41;;;;;;;;;;;;;;;;;;5062299;28;20027;-63
2021/04/06 12:20:07;;;;;;;;;;;;;;;;;;5065539;28;20395;-64
2021/04/06 12:22:34;;;;;;;;;;;;;;;;;;5063356;28;20402;-64
2021/04/06 12:25:01;;;;;;;;;;;;;;;;;;5068530;28;19948;-64
2021/04/06 12:27:28;;;;;;;;;;;;;;;;;;5061223;28;20018;-64
2021/04/06 12:29:54;;;;;;;;;;;;;;;;;;5067637;28;19925;-63
2021/04/06 12:32:21;;;;;;;;;;;;;;;;;;5060471;28;20274;-64
2021/04/06 12:34:47;;;;;;;;;;;;;;;;;;5071878;28;20100;-64
2021/04/06 12:37:14;;;;;;;;;;;;;;;;;;5070660;28;20287;-62
2021/04/06 12:39:40;;;;;;;;;;;;;;;;;;5067146;28;19924;-62
2021/04/06 12:42:07;;;;;;;;;;;;;;;;;;5066062;28;19929;-63
2021/04/06 12:44:34;;;;;;;;;;;;;;;;;;5069143;28;20159;-63
2021/04/06 12:47:00;;;;;;;;;;;;;;;;;;5074159;28;19932;-63
2021/04/06 12:49:28;;;;;;;;;;;;;;;;;;5068945;28;19971;-63
2021/04/06 12:51:55;;;;;;;;;;;;;;;;;;5060651;28;19924;-63
2021/04/06 12:54:21;;;;;;;;;;;;;;;;;;5067739;28;20057;-63
2021/04/06 12:56:48;;;;;;;;;;;;;;;;;;5069224;28;19962;-62
2021/04/06 12:59:14;;;;;;;;;;;;;;;;;;5066691;28;20311;-64
2021/04/06 13:01:41;;;;;;;;;;;;;;;;;;5062833;28;19932;-66
2021/04/06 13:04:07;;;;;;;;;;;;;;;;;;5059546;28;19940;-65
2021/04/06 13:06:34;;;;;;;;;;;;;;;;;;5063877;28;20011;-66
2021/04/06 13:09:01;;;;;;;;;;;;;;;;;;5065174;28;19931;-65
2021/04/06 13:11:27;;;;;;;;;;;;;;;;;;5058114;28;19932;-63
2021/04/06 13:13:55;;;;;;;;;;;;;;;;;;5063879;28;19929;-64
2021/04/06 13:16:21;;;;;;;;;;;;;;;;;;5062748;28;20376;-65
2021/04/06 13:18:48;;;;;;;;;;;;;;;;;;5062772;28;19933;-63
2021/04/06 13:21:14;;;;;;;;;;;;;;;;;;5064291;28;19935;-64
2021/04/06 13:23:41;;;;;;;;;;;;;;;;;;5065194;28;20591;-66
2021/04/06 13:26:07;;;;;;;;;;;;;;;;;;5063482;28;20293;-65
2021/04/06 13:28:34;;;;;;;;;;;;;;;;;;5064096;28;19974;-64
2021/04/06 13:31:01;;;;;;;;;;;;;;;;;;5058575;28;20389;-64
2021/04/06 13:33:27;;;;;;;;;;;;;;;;;;5061574;28;19976;-66
2021/04/06 13:35:53;;;;;;;;;;;;;;;;;;5055654;28;19936;-64
2021/04/06 13:38:20;;;;;;;;;;;;;;;;;;5062760;28;19940;-64
2021/04/06 13:40:47;;;;;;;;;;;;;;;;;;5057559;28;20359;-64
2021/04/06 13:43:13;;;;;;;;;;;;;;;;;;5062929;28;19933;-64
2021/04/06 13:45:40;;;;;;;;;;;;;;;;;;5057980;28;19932;-64
2021/04/06 13:48:06;;;;;;;;;;;;;;;;;;5063097;28;20023;-64
2021/04/06 13:50:33;;;;;;;;;;;;;;;;;;5064321;28;19931;-63
2021/04/06 13:52:59;;;;;;;;;;;;;;;;;;5057133;28;19971;-63
2021/04/06 13:55:26;;;;;;;;;;;;;;;;;;5065594;28;19933;-63
2021/04/06 13:57:52;;;;;;;;;;;;;;;;;;5061773;28;19970;-64
2021/04/06 14:00:19;;;;;;;;;;;;;;;;;;5058105;28;19947;-65
2021/04/06 14:02:45;;;;;;;;;;;;;;;;;;5057286;28;20449;-63
2021/04/06 14:05:12;;;;;;;;;;;;;;;;;;5062356;28;20029;-64
2021/04/06 14:07:39;;;;;;;;;;;;;;;;;;5058992;28;22063;-64
2021/04/06 14:10:05;;;;;;;;;;;;;;;;;;5060934;28;19933;-64
2021/04/06 14:12:31;;;;;;;;;;;;;;;;;;5059737;28;19967;-65
2021/04/06 14:14:58;;;;;;;;;;;;;;;;;;5063439;28;20434;-65
2021/04/06 14:17:24;;;;;;;;;;;;;;;;;;5062639;28;19924;-65
2021/04/06 14:19:51;;;;;;;;;;;;;;;;;;5068390;28;19978;-65
2021/04/06 14:22:18;;;;;;;;;;;;;;;;;;5067431;28;19935;-64
2021/04/06 14:24:44;;;;;;;;;;;;;;;;;;5072592;28;20273;-65
2021/04/06 14:27:11;;;;;;;;;;;;;;;;;;5071792;28;19979;-64
2021/04/06 14:29:37;;;;;;;;;;;;;;;;;;5064214;28;19936;-65
2021/04/06 14:32:04;;;;;;;;;;;;;;;;;;5070222;28;20089;-63
2021/04/06 14:34:30;;;;;;;;;;;;;;;;;;5071477;28;20006;-64
2021/04/06 14:36:57;;;;;;;;;;;;;;;;;;5068654;28;19940;-64
2021/04/06 14:39:23;;;;;;;;;;;;;;;;;;5073624;28;19925;-64
2021/04/06 14:41:50;;;;;;;;;;;;;;;;;;5068054;28;20373;-64
2021/04/06 14:44:20;;;;;;;;;;;;;;;;;;5070963;28;19931;-65
2021/04/06 14:46:46;;;;;;;;;;;;;;;;;;5072875;28;19947;-64
2021/04/06 14:49:13;;;;;;;;;;;;;;;;;;5072447;28;20007;-64
2021/04/06 14:51:40;;;;;;;;;;;;;;;;;;5072335;28;20017;-63
2021/04/06 14:54:06;;;;;;;;;;;;;;;;;;5072517;28;20092;-64
2021/04/06 14:56:33;;;;;;;;;;;;;;;;;;5069627;28;20007;-64
2021/04/06 14:58:59;;;;;;;;;;;;;;;;;;5066208;28;19925;-64
2021/04/06 15:01:26;;;;;;;;;;;;;;;;;;5058219;28;19924;-63
2021/04/06 15:03:52;;;;;;;;;;;;;;;;;;5061822;28;19925;-64
2021/04/06 15:06:19;;;;;;;;;;;;;;;;;;5067102;28;19925;-62
2021/04/06 15:08:45;;;;;;;;;;;;;;;;;;5068567;28;20029;-63
2021/04/06 15:11:12;;;;;;;;;;;;;;;;;;5062045;28;19960;-65
2021/04/06 15:13:38;;;;;;;;;;;;;;;;;;5065440;28;19968;-64
2021/04/06 15:16:05;;;;;;;;;;;;;;;;;;5066575;28;19959;-64
2021/04/06 15:18:31;;;;;;;;;;;;;;;;;;5061621;28;19978;-63
2021/04/06 15:20:58;;;;;;;;;;;;;;;;;;5060723;28;20032;-65
2021/04/06 15:23:27;;;;;;;;;;;;;;;;;;5061480;28;20615;-65
2021/04/06 15:25:54;;;;;;;;;;;;;;;;;;5060663;28;20428;-63
2021/04/06 15:28:20;;;;;;;;;;;;;;;;;;5064871;28;20028;-64
2021/04/06 15:30:47;;;;;;;;;;;;;;;;;;5064957;28;19928;-63
2021/04/06 15:33:13;;;;;;;;;;;;;;;;;;5065076;28;20022;-64
2021/04/06 15:35:40;;;;;;;;;;;;;;;;;;5068001;28;19924;-66
2021/04/06 15:38:06;;;;;;;;;;;;;;;;;;5066553;28;19979;-64
2021/04/06 15:40:33;;;;;;;;;;;;;;;;;;5069378;28;19955;-64
2021/04/06 15:42:59;;;;;;;;;;;;;;;;;;5059240;28;19975;-64
2021/04/06 15:45:26;;;;;;;;;;;;;;;;;;5063065;28;20012;-65
2021/04/06 15:47:52;;;;;;;;;;;;;;;;;;5065945;28;19929;-65
2021/04/06 15:50:19;;;;;;;;;;;;;;;;;;5067640;28;19979;-64
2021/04/06 15:52:46;;;;;;;;;;;;;;;;;;5067516;28;19932;-65
2021/04/06 15:55:12;;;;;;;;;;;;;;;;;;5066298;28;20057;-65
2021/04/06 15:57:39;;;;;;;;;;;;;;;;;;5061116;28;19925;-63
2021/04/06 16:00:05;;;;;;;;;;;;;;;;;;5056025;28;20010;-65
2021/04/06 16:02:32;;;;;;;;;;;;;;;;;;5058161;28;19924;-65
2021/04/06 16:04:58;;;;;;;;;;;;;;;;;;5070187;28;20300;-64
2021/04/06 16:07:25;;;;;;;;;;;;;;;;;;5066390;28;19928;-63
2021/04/06 16:12:28;;;;;;;;;;;;;;;;;;5045290;28;19955;-66
2021/04/06 16:14:54;;;;;;;;;;;;;;;;;;5047390;28;19925;-66
2021/04/06 16:17:23;;;;;;;;;;;;;;;;;;5044134;28;19929;-65
2021/04/06 16:19:49;;;;;;;;;;;;;;;;;;5038443;28;19947;-66
2021/04/06 16:22:16;;;;;;;;;;;;;;;;;;5042874;28;19925;-66
2021/04/06 16:24:45;;;;;;;;;;;;;;;;;;5045853;28;20420;-66
2021/04/06 16:27:11;;;;;;;;;;;;;;;;;;5046155;28;19928;-66
2021/04/06 16:29:38;;;;;;;;;;;;;;;;;;5042622;28;20419;-66
2021/04/06 16:32:04;;;;;;;;;;;;;;;;;;5042133;28;19928;-66
2021/04/06 16:34:31;;;;;;;;;;;;;;;;;;5045597;28;20389;-66
2021/04/06 16:36:57;;;;;;;;;;;;;;;;;;5039604;28;19925;-66
2021/04/06 16:39:24;;;;;;;;;;;;;;;;;;5041510;28;20021;-66
2021/04/06 16:41:50;;;;;;;;;;;;;;;;;;5043423;28;19924;-66
2021/04/06 16:44:17;;;;;;;;;;;;;;;;;;5045058;28;21437;-66